createdAt,value
2023-05-25T00:09:43.915Z,42.58
2023-05-25T00:20:20.654Z,42.99
2023-05-25T00:30:20.382Z,43.18
2023-05-25T00:36:07.385Z,43.31
2023-05-25T00:42:02.214Z,43.39
2023-05-25T00:53:08.822Z,43.53
2023-05-25T00:59:00.189Z,43.60
2023-05-25T01:05:17.600Z,43.70
2023-05-25T01:11:15.250Z,43.78
2023-05-25T01:17:01.275Z,43.94
2023-05-25T01:23:31.847Z,43.98
2023-05-25T01:35:21.694Z,44.14
2023-05-25T01:41:19.085Z,44.20
2023-05-25T01:52:57.648Z,44.30
2023-05-25T01:59:28.875Z,44.37
2023-05-25T02:11:14.070Z,44.59
2023-05-25T02:17:15.765Z,44.74
2023-05-25T02:30:10.056Z,44.94
2023-05-25T02:35:57.550Z,45.02
2023-05-25T02:47:38.828Z,45.32
2023-05-25T02:54:09.646Z,45.49
2023-05-25T03:00:01.459Z,45.61
2023-05-25T03:06:51.089Z,45.72
2023-05-25T03:12:49.733Z,45.85
2023-05-25T03:18:45.229Z,46.10
2023-05-25T03:24:32.842Z,46.09
2023-05-25T03:31:30.702Z,46.08
2023-05-25T03:40:28.267Z,46.17
2023-05-25T03:46:15.460Z,46.06
2023-05-25T03:52:11.244Z,46.15
2023-05-25T03:59:17.388Z,46.17
2023-05-25T04:05:56.664Z,46.20
2023-05-25T04:11:44.472Z,46.10
2023-05-25T04:17:40.334Z,46.17
2023-05-25T04:23:22.778Z,46.07
2023-05-25T04:34:37.421Z,45.98
2023-05-25T04:52:06.573Z,45.97
2023-05-25T04:57:53.849Z,45.88
2023-05-25T05:03:42.418Z,45.95
2023-05-25T05:09:31.140Z,46.04
2023-05-25T05:15:40.978Z,46.08
2023-05-25T05:20:44.607Z,46.04
2023-05-25T05:27:11.101Z,46.23
2023-05-25T05:33:12.046Z,46.33
2023-05-25T05:44:16.065Z,46.21
2023-05-25T05:50:03.626Z,46.20
2023-05-25T06:01:55.842Z,46.28
2023-05-25T06:08:36.274Z,46.32
2023-05-25T06:14:40.754Z,46.35
2023-05-25T06:20:35.810Z,46.17
2023-05-25T06:38:13.400Z,45.90
2023-05-25T06:44:00.635Z,47.96
2023-05-25T06:49:23.102Z,46.88
2023-05-25T06:54:45.481Z,46.68
2023-05-25T07:04:03.488Z,46.46
2023-05-25T07:05:07.248Z,46.30
2023-05-25T07:10:15.494Z,46.88
2023-05-25T07:15:58.744Z,46.62
2023-05-25T07:21:11.472Z,46.59
2023-05-25T07:26:31.898Z,46.50
2023-05-25T07:31:39.478Z,46.41
2023-05-25T07:36:48.718Z,46.44
2023-05-25T07:42:05.463Z,46.44
2023-05-25T07:47:09.442Z,46.46
2023-05-25T07:52:23.651Z,46.50
2023-05-25T07:57:29.910Z,46.43
2023-05-25T08:02:39.987Z,46.34
2023-05-25T08:13:14.262Z,46.38
2023-05-25T08:19:14.858Z,46.46
2023-05-25T08:24:57.345Z,46.53
2023-05-25T08:30:42.940Z,46.68
2023-05-25T08:36:28.426Z,46.63
2023-05-25T08:42:15.837Z,46.38
2023-05-25T08:47:58.468Z,46.48
2023-05-25T09:03:42.786Z,47.08
2023-05-25T09:08:46.839Z,47.54
2023-05-25T09:13:55.005Z,47.26
2023-05-25T09:19:10.994Z,47.46
2023-05-25T09:24:25.783Z,47.88
2023-05-25T09:29:33.512Z,47.76
2023-05-25T09:29:41.859Z,47.30
2023-05-25T09:35:18.049Z,48.45
2023-05-25T09:40:36.579Z,48.47
2023-05-25T09:45:49.684Z,48.24
2023-05-25T09:51:58.265Z,48.56
2023-05-25T09:57:09.175Z,48.55
2023-05-25T10:01:41.248Z,48.94
2023-05-25T10:07:24.533Z,48.39
2023-05-25T10:12:32.318Z,48.23
2023-05-25T10:18:19.511Z,48.68
2023-05-25T10:23:31.841Z,48.75
2023-05-25T10:28:39.826Z,49.44
2023-05-25T10:34:27.190Z,49.55
2023-05-25T10:40:09.651Z,49.00
2023-05-25T10:45:26.446Z,49.66
2023-05-25T10:50:49.658Z,49.40
2023-05-25T10:56:06.672Z,48.76
2023-05-25T11:01:18.764Z,49.38
2023-05-25T11:06:42.232Z,49.06
2023-05-25T11:12:24.732Z,48.83
2023-05-25T11:17:40.242Z,49.47
2023-05-25T11:22:50.381Z,48.97
2023-05-25T11:27:56.146Z,49.41
2023-05-25T11:33:07.487Z,49.23
2023-05-25T11:45:07.338Z,49.67
2023-05-25T11:54:35.584Z,50.19
2023-05-25T12:00:23.894Z,49.89
2023-05-25T12:06:12.664Z,50.69
2023-05-25T12:11:55.117Z,50.44
2023-05-25T12:17:40.056Z,49.97
2023-05-25T12:28:17.793Z,50.13
2023-05-25T12:33:56.883Z,50.57
2023-05-25T12:40:00.945Z,50.71
2023-05-25T12:44:47.069Z,50.13
2023-05-25T12:50:03.149Z,49.74
2023-05-25T12:55:44.020Z,49.32
2023-05-25T13:01:36.072Z,49.42
2023-05-25T13:06:44.720Z,49.51
2023-05-25T13:18:00.442Z,49.85
2023-05-25T13:23:37.205Z,50.02
2023-05-25T13:29:19.496Z,49.76
2023-05-25T13:34:27.281Z,49.60
2023-05-25T13:39:46.061Z,49.72
2023-05-25T13:45:43.189Z,49.81
2023-05-25T13:51:28.854Z,50.10
2023-05-25T13:57:18.750Z,50.18
2023-05-25T14:02:31.642Z,50.07
2023-05-25T14:08:29.133Z,49.82
2023-05-25T14:13:33.642Z,49.76
2023-05-25T14:18:43.741Z,49.77
2023-05-25T14:24:00.373Z,50.09
2023-05-25T14:29:16.318Z,50.20
2023-05-25T14:34:30.330Z,50.20
2023-05-25T14:40:44.406Z,50.11
2023-05-25T14:46:15.615Z,50.03
2023-05-25T14:50:48.299Z,49.96
2023-05-25T14:57:13.080Z,50.00
2023-05-25T15:02:57.494Z,50.02
2023-05-25T15:07:56.529Z,50.03
2023-05-25T15:13:40.531Z,50.15
2023-05-25T15:19:28.921Z,50.29
2023-05-25T15:24:51.277Z,50.10
2023-05-25T15:30:21.905Z,50.02
2023-05-25T15:35:39.236Z,50.13
2023-05-25T15:40:46.618Z,50.39
2023-05-25T15:45:58.084Z,50.23
2023-05-25T15:51:43.008Z,50.92
2023-05-25T15:57:28.859Z,50.69
2023-05-25T16:03:20.519Z,50.58
2023-05-25T16:08:32.594Z,50.71
2023-05-25T16:14:13.586Z,50.87
2023-05-25T16:19:22.304Z,50.74
2023-05-25T16:24:37.146Z,50.96
2023-05-25T16:29:57.187Z,50.74
2023-05-25T16:35:03.294Z,51.19
2023-05-25T16:42:46.901Z,51.23
2023-05-25T16:46:06.904Z,51.16
2023-05-25T16:50:36.173Z,51.00
2023-05-25T16:55:50.873Z,51.16
2023-05-25T17:01:02.408Z,51.33
2023-05-25T17:06:31.266Z,51.25
2023-05-25T17:11:46.083Z,51.21
2023-05-25T17:17:13.753Z,51.44
2023-05-25T17:22:58.443Z,51.44
2023-05-25T17:28:20.046Z,51.38
2023-05-25T17:34:04.560Z,51.02
2023-05-25T17:39:21.244Z,50.84
2023-05-25T17:44:29.011Z,50.88
2023-05-25T17:49:41.743Z,50.65
2023-05-25T17:54:57.868Z,50.74
2023-05-25T18:00:24.460Z,50.81
2023-05-25T18:06:52.136Z,50.82
2023-05-25T18:11:31.671Z,50.77
2023-05-25T18:16:45.037Z,50.72
2023-05-25T18:21:56.882Z,50.66
2023-05-25T18:32:13.567Z,50.62
2023-05-25T18:33:13.811Z,50.61
2023-05-25T18:38:53.781Z,50.47
2023-05-25T18:49:50.772Z,50.35
2023-05-25T18:55:07.850Z,50.37
2023-05-25T19:00:31.203Z,50.32
2023-05-25T19:05:47.578Z,50.31
2023-05-25T19:12:14.515Z,50.24
2023-05-25T19:16:51.236Z,50.27
2023-05-25T19:22:47.017Z,50.57
2023-05-25T19:28:25.762Z,50.68
2023-05-25T19:35:15.974Z,50.96
2023-05-25T19:40:32.754Z,50.93
2023-05-25T19:46:33.527Z,50.77
2023-05-25T19:51:31.377Z,50.90
2023-05-25T19:56:44.523Z,50.90
2023-05-25T20:02:24.892Z,50.83
2023-05-25T20:07:35.594Z,50.98
2023-05-25T20:14:38.815Z,51.19
2023-05-25T20:18:14.141Z,51.26
2023-05-25T20:23:31.162Z,51.36
2023-05-25T20:29:04.637Z,51.47
2023-05-25T20:34:34.736Z,51.43
2023-05-25T20:39:56.860Z,51.47
2023-05-25T20:45:18.451Z,51.67
2023-05-25T20:50:44.337Z,51.77
2023-05-25T21:01:39.653Z,51.76
2023-05-25T21:01:57.406Z,51.70
2023-05-25T21:06:32.777Z,51.73
2023-05-25T21:12:18.557Z,51.74
2023-05-25T21:19:23.434Z,51.82
2023-05-25T21:22:42.841Z,51.87
2023-05-25T21:27:56.888Z,52.07
2023-05-25T21:33:05.305Z,52.15
2023-05-25T21:38:15.916Z,52.13
2023-05-25T21:43:56.363Z,52.07
2023-05-25T21:49:14.901Z,52.01
2023-05-25T21:54:20.846Z,51.87
2023-05-25T21:59:50.972Z,51.80
2023-05-25T22:05:31.436Z,51.87
2023-05-25T22:10:56.484Z,51.84
2023-05-25T22:18:06.395Z,51.80
2023-05-25T22:22:05.421Z,51.83
2023-05-25T22:26:54.129Z,51.70
2023-05-25T22:43:11.197Z,51.73
2023-05-25T22:49:22.214Z,51.67
2023-05-25T22:55:17.304Z,51.67
2023-05-25T23:00:34.682Z,51.56
2023-05-25T23:05:58.860Z,51.38
2023-05-25T23:11:27.877Z,51.35
2023-05-25T23:17:08.488Z,51.29
2023-05-25T23:23:45.399Z,51.22
2023-05-25T23:28:28.101Z,51.30
2023-05-25T23:34:56.003Z,51.28
2023-05-25T23:40:56.203Z,51.16
2023-05-25T23:46:45.906Z,51.16
2023-05-25T23:52:29.811Z,51.08
